SE Lincoln WX Station Historical Data
 
Daily Summary for January 27, 2020 Units:  English    Metric   Both
Daily Weekly Monthly Yearly Custom
  Current: High: Low: Average:
Temperature: 35.9 °F 38.1 °F 27 °F 33.7 °F
Dew Point: 30.5 °F 32.4 °F 24.8 °F 29.8 °F
Humidity: 80.4% 93% 78% 86%
Wind Speed: 0mph 1mph 0mph 0.1mph
Wind Gust: 1mph 9mph - -
WindCalm - - NW
Pressure: 30.12 in 30.16 in 30.03 in -
Precipitation: 0.00 in      
Historical Graphs
 
 
Tabular Data for January 27, 2020
Time Temperature Dew Point Pressure Wind Wind Speed Wind Gust Humidity Rainfall Rate (Hourly) solar
00:04 28.9 °F 26.4 °F 30.03 in Calm     90% 0.00 in 0 W/m2
00:09 28.9 °F 26.3 °F 30.03 in Calm     90% 0.00 in 0 W/m2
00:14 28.8 °F 26.2 °F 30.03 in Calm     90% 0.00 in 0 W/m2
00:19 28.7 °F 26.2 °F 30.03 in Calm     90% 0.00 in 0 W/m2
00:24 28.7 °F 26.1 °F 30.03 in Calm     90% 0.00 in 0 W/m2
00:29 28.5 °F 25.9 °F 30.03 in Calm     90% 0.00 in 0 W/m2
00:34 28.4 °F 26.1 °F 30.03 in Calm     91% 0.00 in 0 W/m2
00:39 28.3 °F 26 °F 30.03 in Calm     91% 0.00 in 0 W/m2
00:44 28.3 °F 26 °F 30.03 in Calm     91% 0.00 in 0 W/m2
00:49 28.2 °F 25.9 °F 30.03 in Calm     91% 0.00 in 0 W/m2
00:54 28.1 °F 25.8 °F 30.03 in Calm     91% 0.00 in 0 W/m2
00:59 28 °F 25.7 °F 30.03 in Calm     91% 0.00 in 0 W/m2
01:04 27.9 °F 25.6 °F 30.03 in Calm     91% 0.00 in 0 W/m2
01:09 27.8 °F 25.5 °F 30.03 in Calm     91% 0.00 in 0 W/m2
01:14 27.8 °F 25.5 °F 30.03 in Calm     91% 0.00 in 0 W/m2
01:19 27.7 °F 25.4 °F 30.03 in Calm     91% 0.00 in 0 W/m2
01:24 27.7 °F 25.4 °F 30.03 in Calm     91% 0.00 in 0 W/m2
01:29 27.7 °F 25.4 °F 30.03 in Calm     91% 0.00 in 0 W/m2
01:34 27.6 °F 25.3 °F 30.03 in Calm     91% 0.00 in 0 W/m2
01:39 27.6 °F 25.3 °F 30.03 in Calm     91% 0.00 in 0 W/m2
01:44 27.5 °F 25.3 °F 30.03 in Calm     91% 0.00 in 0 W/m2
01:49 27.5 °F 25.2 °F 30.03 in Calm     91% 0.00 in 0 W/m2
01:54 27.4 °F 25.1 °F 30.03 in Calm     91% 0.00 in 0 W/m2
01:59 27.3 °F 25.1 °F 30.03 in Calm     91% 0.00 in 0 W/m2
02:04 27.2 °F 24.9 °F 30.03 in Calm     91% 0.00 in 0 W/m2
02:09 27.1 °F 24.9 °F 30.03 in Calm     91% 0.00 in 0 W/m2
02:14 27.1 °F 24.8 °F 30.03 in Calm     91% 0.00 in 0 W/m2
02:19 27 °F 25 °F 30.03 in Calm     92% 0.00 in 0 W/m2
02:24 27.1 °F 25 °F 30.04 in Calm     91.8% 0.00 in 0 W/m2
02:29 27.3 °F 25.3 °F 30.04 in Calm     92% 0.00 in 0 W/m2
02:34 27.4 °F 25.4 °F 30.04 in Calm     92% 0.00 in 0 W/m2
02:39 27.6 °F 25.6 °F 30.04 in Calm     92% 0.00 in 0 W/m2
02:44 28.1 °F 26.2 °F 30.04 in Calm     92.5% 0.00 in 0 W/m2
02:49 28.7 °F 26.9 °F 30.04 in Calm     93% 0.00 in 0 W/m2
02:54 29.2 °F 27.4 °F 30.04 in Calm     93% 0.00 in 0 W/m2
02:59 29.8 °F 28 °F 30.04 in Calm     93% 0.00 in 0 W/m2
03:04 30.2 °F 28.5 °F 30.04 in NNW 0.2 mph 4 mph 93% 0.00 in 0 W/m2
03:09 30.6 °F 28.8 °F 30.04 in NNW 0.5 mph 4 mph 93% 0.00 in 0 W/m2
03:14 31 °F 29.2 °F 30.04 in NW 0.1 mph 3 mph 93% 0.00 in 0 W/m2
03:19 31.2 °F 29.4 °F 30.04 in NNW 0.1 mph 2 mph 93% 0.00 in 0 W/m2
03:24 31.4 °F 29.6 °F 30.04 in NNW 0.3 mph 4 mph 93% 0.00 in 0 W/m2
03:29 31.6 °F 29.8 °F 30.04 in NNW 0.5 mph 6 mph 93% 0.00 in 0 W/m2
03:34 31.8 °F 30 °F 30.04 in NNW 0.3 mph 4 mph 93% 0.00 in 0 W/m2
03:39 31.9 °F 30.1 °F 30.04 in NNW 0.6 mph 6 mph 93% 0.00 in 0 W/m2
03:44 32.1 °F 30.1 °F 30.04 in NW 0.5 mph 4 mph 92.4% 0.00 in 0 W/m2
03:49 32.2 °F 30.1 °F 30.05 in Calm   1 mph 92% 0.00 in 0 W/m2
03:54 32.3 °F 30.2 °F 30.05 in Calm     92% 0.00 in 0 W/m2
03:59 32.3 °F 30.1 °F 30.05 in NW 0.7 mph 6 mph 91.4% 0.00 in 0 W/m2
04:04 32.5 °F 30.2 °F 30.05 in NW 0.1 mph 3 mph 91% 0.00 in 0 W/m2
04:09 32.6 °F 30.3 °F 30.05 in NNW 0.1 mph 2 mph 91% 0.00 in 0 W/m2
04:14 32.8 °F 30.2 °F 30.05 in NNW 0.3 mph 4 mph 90.1% 0.00 in 0 W/m2
04:19 32.8 °F 30.2 °F 30.05 in NW 0.1 mph 3 mph 90% 0.00 in 0 W/m2
04:24 32.9 °F 30.1 °F 30.05 in NW 0.1 mph 2 mph 89.3% 0.00 in 0 W/m2
04:29 32.9 °F 30 °F 30.06 in Calm     89% 0.00 in 0 W/m2
04:34 33 °F 30.1 °F 30.06 in NNW 0.8 mph 6 mph 89% 0.00 in 0 W/m2
04:39 33.1 °F 30.1 °F 30.06 in North 0.2 mph 6 mph 88.5% 0.00 in 0 W/m2
04:44 33.2 °F 30.1 °F 30.06 in Calm   2 mph 88% 0.00 in 0 W/m2
04:49 33.3 °F 30.1 °F 30.06 in NNW 0.6 mph 5 mph 88% 0.00 in 0 W/m2
04:54 33.4 °F 30.3 °F 30.06 in NW 0.6 mph 7 mph 88% 0.00 in 0 W/m2
04:59 33.5 °F 30.4 °F 30.07 in NNW 0.1 mph 7 mph 88% 0.00 in 0 W/m2
05:04 33.6 °F 30.2 °F 30.07 in Calm   1 mph 87.1% 0.00 in 0 W/m2
05:09 33.7 °F 30.2 °F 30.07 in NNW 0.2 mph 2 mph 87% 0.00 in 0 W/m2
05:14 33.7 °F 30.2 °F 30.07 in Calm     87% 0.00 in 0 W/m2
05:19 33.6 °F 30.2 °F 30.07 in Calm   1 mph 87% 0.00 in 0 W/m2
05:24 33.6 °F 30.2 °F 30.07 in NW 0.1 mph 3 mph 87% 0.00 in 0 W/m2
05:29 33.7 °F 30.2 °F 30.07 in NW 0.2 mph 4 mph 87% 0.00 in 0 W/m2
05:34 33.7 °F 30.3 °F 30.07 in NW 0.3 mph 6 mph 87% 0.00 in 0 W/m2
05:39 33.8 °F 30.3 °F 30.07 in NNW 0.7 mph 6 mph 87% 0.00 in 0 W/m2
05:44 33.9 °F 30.3 °F 30.07 in Calm   1 mph 86.5% 0.00 in 0 W/m2
05:49 33.9 °F 30.3 °F 30.07 in Calm     86.5% 0.00 in 0 W/m2
05:54 34 °F 30.2 °F 30.07 in NW 0.3 mph 3 mph 86% 0.00 in 0 W/m2
05:59 34 °F 30.3 °F 30.07 in NNW 0.5 mph 4 mph 86% 0.00 in 0 W/m2
06:04 34.1 °F 30.4 °F 30.07 in NW 0.2 mph 2 mph 86% 0.00 in 0 W/m2
06:09 34.2 °F 30.5 °F 30.08 in NNW 0.4 mph 8 mph 86% 0.00 in 0 W/m2
06:14 34.4 °F 30.6 °F 30.08 in NNW 0.2 mph 8 mph 85.8% 0.00 in 0 W/m2
06:19 34.4 °F 30.4 °F 30.08 in Calm     85% 0.00 in 0 W/m2
06:24 34.5 °F 30.5 °F 30.08 in NNW 0.3 mph 3 mph 85% 0.00 in 0 W/m2
06:29 34.5 °F 30.5 °F 30.08 in NNW 0.5 mph 6 mph 85% 0.00 in 0 W/m2
06:34 34.6 °F 30.6 °F 30.08 in Calm   1 mph 85% 0.00 in 0 W/m2
06:39 34.6 °F 30.6 °F 30.08 in NW 0.2 mph 4 mph 85% 0.00 in 0 W/m2
06:44 34.6 °F 30.6 °F 30.08 in NNW 0.2 mph 5 mph 85% 0.00 in 0 W/m2
06:49 34.6 °F 30.6 °F 30.09 in Calm   1 mph 85% 0.00 in 0 W/m2
06:54 34.6 °F 30.6 °F 30.09 in NW 0.2 mph 6 mph 85% 0.00 in 0 W/m2
06:59 34.6 °F 30.6 °F 30.09 in Calm     85% 0.00 in 0 W/m2
07:04 34.6 °F 30.6 °F 30.09 in North 0.2 mph 4 mph 85% 0.00 in 0 W/m2
07:09 34.7 °F 30.7 °F 30.09 in Calm     85% 0.00 in 0 W/m2
07:14 34.7 °F 30.7 °F 30.09 in Calm     85% 0.00 in 0 W/m2
07:19 34.7 °F 30.7 °F 30.09 in Calm     85% 0.00 in 0 W/m2
07:24 34.7 °F 30.7 °F 30.09 in Calm     85% 0.00 in 0 W/m2
07:29 34.7 °F 30.7 °F 30.09 in Calm     85% 0.00 in 0 W/m2
07:34 34.7 °F 30.7 °F 30.09 in Calm     85% 0.00 in 0 W/m2
07:39 34.7 °F 30.7 °F 30.09 in Calm     85% 0.00 in 0 W/m2
07:44 34.7 °F 30.7 °F 30.09 in Calm     85% 0.00 in 0 W/m2
07:49 34.7 °F 30.7 °F 30.10 in Calm     85% 0.00 in 0 W/m2
07:54 34.7 °F 30.7 °F 30.10 in Calm     85% 0.00 in 7 W/m2
07:59 34.7 °F 30.7 °F 30.10 in Calm     85% 0.00 in 9 W/m2
08:04 34.7 °F 30.7 °F 30.10 in Calm     85% 0.00 in 12 W/m2
08:09 34.7 °F 30.7 °F 30.10 in Calm     85% 0.00 in 18 W/m2
08:14 34.8 °F 30.8 °F 30.10 in Calm     85% 0.00 in 23 W/m2
08:19 34.8 °F 30.8 °F 30.10 in Calm     85% 0.00 in 26 W/m2
08:24 34.8 °F 30.8 °F 30.10 in Calm     85% 0.00 in 30 W/m2
08:29 34.9 °F 30.8 °F 30.10 in Calm     85% 0.00 in 39 W/m2
08:34 34.9 °F 30.9 °F 30.11 in Calm     85% 0.00 in 39 W/m2
08:39 35 °F 30.9 °F 30.11 in Calm     85% 0.00 in 37 W/m2
08:44 35 °F 31 °F 30.11 in Calm     85% 0.00 in 47 W/m2
08:49 35 °F 31 °F 30.11 in Calm     85% 0.00 in 51 W/m2
08:54 35.1 °F 31.1 °F 30.11 in Calm     85% 0.00 in 54 W/m2
08:59 35.2 °F 31.2 °F 30.11 in Calm     85% 0.00 in 53 W/m2
09:04 35.2 °F 31.2 °F 30.11 in Calm     85% 0.00 in 56 W/m2
09:09 35.3 °F 31 °F 30.11 in Calm     84% 0.00 in 62 W/m2
09:14 35.4 °F 31 °F 30.12 in Calm     84% 0.00 in 60 W/m2
09:19 35.5 °F 31.2 °F 30.12 in Calm     84.4% 0.00 in 51 W/m2
09:24 35.5 °F 31.2 °F 30.13 in Calm     84% 0.00 in 53 W/m2
09:29 35.5 °F 31.2 °F 30.13 in Calm     84% 0.00 in 56 W/m2
09:34 35.5 °F 31.2 °F 30.13 in Calm     84% 0.00 in 54 W/m2
09:39 35.5 °F 30.9 °F 30.13 in NNW 0.1 mph 2 mph 83.1% 0.00 in 53 W/m2
09:44 35.5 °F 30.9 °F 30.13 in Calm   2 mph 83% 0.00 in 58 W/m2
09:49 35.6 °F 31.2 °F 30.13 in Calm     83.9% 0.00 in 65 W/m2
09:54 35.6 °F 31.3 °F 30.14 in Calm   1 mph 84% 0.00 in 77 W/m2
09:59 35.6 °F 31.3 °F 30.14 in NW 0.1 mph 3 mph 84% 0.00 in 86 W/m2
10:04 35.6 °F 31.3 °F 30.14 in Calm     84% 0.00 in 97 W/m2
10:09 35.6 °F 31.3 °F 30.14 in Calm   1 mph 84% 0.00 in 95 W/m2
10:14 35.6 °F 31.3 °F 30.14 in NNW 0.2 mph 4 mph 84% 0.00 in 95 W/m2
10:19 35.7 °F 31.4 °F 30.15 in NNW 0.1 mph 4 mph 84% 0.00 in 83 W/m2
10:24 35.7 °F 31.2 °F 30.15 in North 0.2 mph 3 mph 83.5% 0.00 in 97 W/m2
10:29 35.7 °F 31.3 °F 30.15 in Calm     83.6% 0.00 in 100 W/m2
10:34 35.8 °F 31.5 °F 30.15 in Calm     84% 0.00 in 109 W/m2
10:39 35.9 °F 31.3 °F 30.15 in NW 0.3 mph 6 mph 83.3% 0.00 in 113 W/m2
10:44 35.8 °F 31.2 °F 30.15 in NNW 0.1 mph 2 mph 83% 0.00 in 120 W/m2
10:49 35.9 °F 31.3 °F 30.15 in Calm   1 mph 83% 0.00 in 114 W/m2
10:54 35.9 °F 31.3 °F 30.16 in NNW 0.1 mph 5 mph 83% 0.00 in 116 W/m2
10:59 36 °F 31.3 °F 30.16 in NNW 0.1 mph 3 mph 83% 0.00 in 125 W/m2
11:04 36 °F 31.4 °F 30.16 in NNW 0.1 mph 3 mph 83% 0.00 in 149 W/m2
11:09 36 °F 31.4 °F 30.16 in Calm   3 mph 83% 0.00 in 149 W/m2
11:14 36 °F 31.4 °F 30.16 in Calm   1 mph 83% 0.00 in 163 W/m2
11:19 36.3 °F 31.6 °F 30.16 in NNW 0.2 mph 4 mph 83% 0.00 in 183 W/m2
11:24 36.4 °F 31.6 °F 30.16 in Calm   2 mph 82.5% 0.00 in 232 W/m2
11:29 36.3 °F 31.4 °F 30.16 in NE 0.3 mph 3 mph 82% 0.00 in 267 W/m2
11:34 36.5 °F 31.6 °F 30.15 in North 0.1 mph 4 mph 82.2% 0.00 in 366 W/m2
11:39 36.7 °F 31.7 °F 30.15 in North 0.7 mph 6 mph 82% 0.00 in 603 W/m2
11:44 37 °F 31.9 °F 30.14 in North 0.7 mph 6 mph 81.4% 0.00 in 603 W/m2
11:49 37.6 °F 32.3 °F 30.14 in North 0.7 mph 9 mph 81% 0.00 in 564 W/m2
11:54 38.1 °F 32.4 °F 30.14 in North 0.7 mph 6 mph 79.5% 0.00 in 478 W/m2
11:59 38.1 °F 32 °F 30.14 in NNW 0.4 mph 6 mph 78.6% 0.00 in 376 W/m2
12:04 37.6 °F 31.5 °F 30.14 in NNW 0.5 mph 5 mph 78.1% 0.00 in 336 W/m2
12:09 37.5 °F 31.6 °F 30.14 in NE 0.2 mph 5 mph 79% 0.00 in 336 W/m2
12:14 37.7 °F 31.7 °F 30.14 in NNW 0.5 mph 8 mph 78.8% 0.00 in 278 W/m2
12:19 37.7 °F 31.5 °F 30.14 in NW 0.1 mph 2 mph 78.4% 0.00 in 272 W/m2
12:24 37.6 °F 31.4 °F 30.14 in Calm   2 mph 78.4% 0.00 in 244 W/m2
12:29 37.5 °F 31.5 °F 30.14 in NNW 0.3 mph 3 mph 78.8% 0.00 in 244 W/m2
12:34 37.5 °F 31.6 °F 30.14 in Calm     79% 0.00 in 207 W/m2
12:39 37.4 °F 31.3 °F 30.14 in NNW 0.6 mph 5 mph 78.5% 0.00 in 218 W/m2
12:44 37.2 °F 31.2 °F 30.14 in Calm   4 mph 78.6% 0.00 in 218 W/m2
12:49 37.1 °F 31.2 °F 30.14 in NNW 0.3 mph 5 mph 79% 0.00 in 209 W/m2
12:54 37.3 °F 31.4 °F 30.14 in NNW 0.1 mph 2 mph 79% 0.00 in 190 W/m2
12:59 37.3 °F 31.4 °F 30.14 in NNW 1 mph 8 mph 79% 0.00 in 186 W/m2
13:04 37.1 °F 31.2 °F 30.14 in North 0.2 mph 8 mph 79% 0.00 in 230 W/m2
13:09 37.1 °F 31.2 °F 30.13 in Calm   2 mph 79% 0.00 in 236 W/m2
13:14 37.4 °F 31.4 °F 30.13 in Calm   2 mph 79% 0.00 in 213 W/m2
13:19 37.3 °F 31.1 °F 30.13 in NW 0.1 mph 5 mph 78% 0.00 in 262 W/m2
13:24 37.3 °F 31.4 °F 30.13 in Calm   2 mph 78.9% 0.00 in 290 W/m2
13:29 37.4 °F 31.5 °F 30.12 in Calm     79% 0.00 in 271 W/m2
13:34 37.5 °F 31.4 °F 30.12 in NNW 0.1 mph 3 mph 78.3% 0.00 in 246 W/m2
13:39 37.4 °F 31.2 °F 30.12 in NNE 0.6 mph 6 mph 78% 0.00 in 288 W/m2
13:44 37.3 °F 31.1 °F 30.12 in Calm   1 mph 78% 0.00 in 258 W/m2
13:49 37.3 °F 31.1 °F 30.12 in North 0.4 mph 5 mph 78% 0.00 in 230 W/m2
13:54 37.1 °F 30.9 °F 30.12 in NNE 0.7 mph 9 mph 78% 0.00 in 185 W/m2
13:59 36.9 °F 30.9 °F 30.12 in North 0.2 mph 3 mph 78.6% 0.00 in 153 W/m2
14:04 36.8 °F 30.9 °F 30.12 in NNW 0.4 mph 4 mph 79% 0.00 in 123 W/m2
14:09 36.6 °F 30.7 °F 30.12 in Calm   2 mph 79% 0.00 in 105 W/m2
14:14 36.5 °F 30.9 °F 30.12 in ENE 0.5 mph 4 mph 79.9% 0.00 in 98 W/m2
14:19 36.5 °F 30.9 °F 30.12 in Calm     80% 0.00 in 102 W/m2
14:24 36.5 °F 30.9 °F 30.12 in Calm     80% 0.00 in 102 W/m2
14:29 36.5 °F 30.9 °F 30.12 in Calm   1 mph 80% 0.00 in 98 W/m2
14:34 36.5 °F 30.9 °F 30.12 in Calm   2 mph 80% 0.00 in 91 W/m2
14:39 36.4 °F 30.9 °F 30.12 in NW 0.5 mph 4 mph 80% 0.00 in 88 W/m2
14:44 36.3 °F 30.7 °F 30.12 in NNW 0.1 mph 3 mph 80% 0.00 in 81 W/m2
14:49 36.1 °F 30.6 °F 30.12 in Calm   2 mph 80% 0.00 in 77 W/m2
14:54 35.9 °F 30.5 °F 30.12 in Calm   1 mph 80.4% 0.00 in 77 W/m2
66th and South
Compliments of Weather Underground - 4 mb